createdAt,value
2018-03-06T00:00:13.708Z,-2.30
2018-03-06T00:01:19.689Z,-2.34
2018-03-06T00:02:25.666Z,-2.35
2018-03-06T00:03:31.655Z,-2.32
2018-03-06T00:04:38.127Z,-2.36
2018-03-06T00:05:44.065Z,-2.34
2018-03-06T00:06:49.557Z,-2.30
2018-03-06T00:07:55.566Z,-2.31
2018-03-06T00:09:01.526Z,-2.33
2018-03-06T00:10:07.475Z,-2.32
2018-03-06T00:11:13.452Z,-2.32
2018-03-06T00:12:19.410Z,-2.41
2018-03-06T00:13:25.418Z,-2.49
2018-03-06T00:14:31.361Z,-2.54
2018-03-06T00:15:37.353Z,-2.59
2018-03-06T00:16:43.297Z,-2.63
2018-03-06T00:17:49.269Z,-2.25
2018-03-06T00:18:55.253Z,-2.14
2018-03-06T00:20:01.214Z,-2.22
2018-03-06T00:21:07.186Z,-2.32
2018-03-06T00:22:13.148Z,-2.46
2018-03-06T00:23:19.130Z,-2.50
2018-03-06T00:24:25.574Z,-2.54
2018-03-06T00:25:31.063Z,-2.62
2018-03-06T00:26:37.017Z,-2.69
2018-03-06T00:27:42.989Z,-2.70
2018-03-06T00:28:48.983Z,-2.70
2018-03-06T00:29:54.929Z,-2.71
2018-03-06T00:31:00.903Z,-2.62
2018-03-06T00:32:07.360Z,-2.56
2018-03-06T00:33:12.935Z,-2.56
2018-03-06T00:34:18.828Z,-2.62
2018-03-06T00:35:24.768Z,-2.70
2018-03-06T00:36:30.740Z,-2.74
2018-03-06T00:37:36.688Z,-2.64
2018-03-06T00:38:42.691Z,-2.59
2018-03-06T00:39:48.674Z,-2.60
2018-03-06T00:40:54.784Z,-2.61
2018-03-06T00:42:00.562Z,-2.67
2018-03-06T00:43:06.511Z,-2.77
2018-03-06T00:44:12.637Z,-2.77
2018-03-06T00:45:18.458Z,-2.85
2018-03-06T00:46:24.937Z,-2.87
2018-03-06T00:47:30.371Z,-2.95
2018-03-06T00:48:36.347Z,-3.05
2018-03-06T00:49:42.292Z,-3.02
2018-03-06T00:50:48.271Z,-2.99
2018-03-06T00:51:54.220Z,-3.00
2018-03-06T00:53:00.678Z,-3.00
2018-03-06T00:54:06.167Z,-2.98
2018-03-06T00:55:12.089Z,-2.97
2018-03-06T00:56:18.554Z,-2.98
2018-03-06T00:57:24.028Z,-3.01
2018-03-06T00:58:29.993Z,-3.01
2018-03-06T00:59:35.944Z,-3.03
2018-03-06T01:00:41.892Z,-3.01
2018-03-06T01:01:47.847Z,-3.01
2018-03-06T01:02:53.794Z,-3.04
2018-03-06T01:03:59.775Z,-2.92
2018-03-06T01:05:05.728Z,-2.73
2018-03-06T01:06:12.160Z,-2.64
2018-03-06T01:07:17.819Z,-2.65
2018-03-06T01:08:23.655Z,-2.73
2018-03-06T01:09:30.046Z,-2.80
2018-03-06T01:10:36.008Z,-2.77
2018-03-06T01:11:41.467Z,-2.85
2018-03-06T01:12:47.428Z,-2.97
2018-03-06T01:13:53.407Z,-3.03
2018-03-06T01:14:59.340Z,-2.98
2018-03-06T01:16:05.789Z,-3.03
2018-03-06T01:17:11.268Z,-3.08
2018-03-06T01:18:17.216Z,-3.13
2018-03-06T01:19:23.198Z,-3.15
2018-03-06T01:20:29.132Z,-3.18
2018-03-06T01:21:35.103Z,-3.27
2018-03-06T01:22:41.056Z,-3.31
2018-03-06T01:23:47.016Z,-3.20
2018-03-06T01:24:52.993Z,-3.15
2018-03-06T01:25:59.431Z,-3.15
2018-03-06T01:27:04.961Z,-3.18
2018-03-06T01:28:10.822Z,-3.16
2018-03-06T01:29:16.800Z,-3.13
2018-03-06T01:30:22.758Z,-3.11
2018-03-06T01:31:28.723Z,-3.11
2018-03-06T01:32:34.648Z,-3.14
2018-03-06T01:33:40.643Z,-3.12
2018-03-06T01:34:46.562Z,-3.07
2018-03-06T01:35:52.996Z,-3.07
2018-03-06T01:36:58.454Z,-3.13
2018-03-06T01:38:04.430Z,-3.10
2018-03-06T01:39:10.391Z,-3.02
2018-03-06T01:40:16.312Z,-2.98
2018-03-06T01:41:22.260Z,-3.07
2018-03-06T01:42:28.241Z,-3.12
2018-03-06T01:43:34.205Z,-3.13
2018-03-06T01:44:40.130Z,-3.10
2018-03-06T01:45:46.086Z,-2.95
2018-03-06T01:46:52.187Z,-2.94
2018-03-06T01:47:57.999Z,-3.02
2018-03-06T01:49:03.958Z,-3.10
2018-03-06T01:50:09.895Z,-3.13
2018-03-06T01:51:15.861Z,-3.11
2018-03-06T01:52:21.788Z,-3.11
2018-03-06T01:53:27.745Z,-3.19
2018-03-06T01:54:34.213Z,-3.22
2018-03-06T01:55:39.662Z,-3.23
2018-03-06T01:56:45.609Z,-3.21
2018-03-06T01:57:51.577Z,-3.17
2018-03-06T01:58:58.490Z,-3.09
2018-03-06T02:00:03.525Z,-2.95
2018-03-06T02:01:09.433Z,-2.95
2018-03-06T02:02:15.400Z,-2.99
2018-03-06T02:03:21.322Z,-3.02
2018-03-06T02:04:27.297Z,-3.06
2018-03-06T02:05:33.221Z,-3.07
2018-03-06T02:06:39.735Z,-3.07
2018-03-06T02:07:45.155Z,-3.03
2018-03-06T02:08:51.107Z,-3.12
2018-03-06T02:09:57.043Z,-3.10
2018-03-06T02:11:02.990Z,-3.06
2018-03-06T02:12:08.935Z,-3.15
2018-03-06T02:13:15.375Z,-3.24
2018-03-06T02:14:21.357Z,-3.29
2018-03-06T02:15:26.796Z,-3.17
2018-03-06T02:16:33.234Z,-3.17
2018-03-06T02:17:38.690Z,-3.14
2018-03-06T02:18:44.663Z,-3.08
2018-03-06T02:19:50.609Z,-3.11
2018-03-06T02:20:56.555Z,-3.17
2018-03-06T02:22:02.507Z,-3.21
2018-03-06T02:23:08.464Z,-3.26
2018-03-06T02:24:14.460Z,-3.31
2018-03-06T02:25:20.370Z,-3.25
2018-03-06T02:26:26.347Z,-3.22
2018-03-06T02:27:32.278Z,-3.28
2018-03-06T02:28:38.704Z,-3.38
2018-03-06T02:29:44.194Z,-3.44
2018-03-06T02:30:50.115Z,-3.46
2018-03-06T02:31:57.076Z,-3.47
2018-03-06T02:33:02.524Z,-3.55
2018-03-06T02:34:08.486Z,-3.64
2018-03-06T02:35:14.406Z,-3.62
2018-03-06T02:36:19.880Z,-3.55
2018-03-06T02:37:26.328Z,-3.51
2018-03-06T02:38:31.759Z,-3.51
2018-03-06T02:39:37.727Z,-3.53
2018-03-06T02:40:43.664Z,-3.50
2018-03-06T02:41:49.625Z,-3.46
2018-03-06T02:42:55.557Z,-3.46
2018-03-06T02:44:02.017Z,-3.52
2018-03-06T02:45:07.949Z,-3.47
2018-03-06T02:46:13.395Z,-3.48
2018-03-06T02:47:19.348Z,-3.46
2018-03-06T02:48:25.311Z,-3.50
2018-03-06T02:49:31.265Z,-3.46
2018-03-06T02:50:37.189Z,-3.41
2018-03-06T02:51:43.646Z,-3.36
2018-03-06T02:52:49.583Z,-3.35
2018-03-06T02:53:55.059Z,-3.41
2018-03-06T02:55:01.001Z,-3.41
2018-03-06T02:56:07.440Z,-3.34
2018-03-06T02:57:13.399Z,-3.33
2018-03-06T02:58:19.324Z,-3.39
2018-03-06T02:59:24.830Z,-3.48
2018-03-06T03:00:31.247Z,-3.51
2018-03-06T03:01:37.200Z,-3.47
2018-03-06T03:02:43.627Z,-3.49
2018-03-06T03:03:48.811Z,-3.56
2018-03-06T03:04:54.540Z,-3.60
2018-03-06T03:06:00.510Z,-3.62
2018-03-06T03:07:06.417Z,-3.58
2018-03-06T03:08:12.363Z,-3.58
2018-03-06T03:09:18.849Z,-3.57
2018-03-06T03:10:24.264Z,-3.49
2018-03-06T03:11:30.205Z,-3.47
2018-03-06T03:12:36.658Z,-3.51
2018-03-06T03:13:42.099Z,-3.54
2018-03-06T03:14:48.145Z,-3.61
2018-03-06T03:15:53.992Z,-3.73
2018-03-06T03:16:59.935Z,-3.82
2018-03-06T03:18:06.380Z,-3.83
2018-03-06T03:19:12.374Z,-3.73
2018-03-06T03:20:18.286Z,-3.71
2018-03-06T03:21:23.744Z,-3.77
2018-03-06T03:22:29.669Z,-3.78
2018-03-06T03:23:36.093Z,-3.82
2018-03-06T03:24:42.064Z,-3.80
2018-03-06T03:25:47.481Z,-3.75
2018-03-06T03:26:53.434Z,-3.75
2018-03-06T03:27:59.367Z,-3.76
2018-03-06T03:29:05.338Z,-3.77
2018-03-06T03:30:11.273Z,-3.81
2018-03-06T03:31:17.697Z,-3.79
2018-03-06T03:32:23.151Z,-3.74
2018-03-06T03:33:29.095Z,-3.70
2018-03-06T03:34:35.054Z,-3.67
2018-03-06T03:35:41.453Z,-3.59
2018-03-06T03:36:46.928Z,-3.58
2018-03-06T03:37:52.946Z,-3.64
2018-03-06T03:38:58.831Z,-3.68
2018-03-06T03:40:05.354Z,-3.72
2018-03-06T03:41:10.693Z,-3.69
2018-03-06T03:42:17.139Z,-3.65
2018-03-06T03:43:23.076Z,-3.77
2018-03-06T03:44:28.541Z,-3.81
2018-03-06T03:45:34.926Z,-3.76
2018-03-06T03:46:40.941Z,-3.85
2018-03-06T03:47:46.937Z,-3.91
2018-03-06T03:48:52.296Z,-3.94
2018-03-06T03:49:58.255Z,-3.85
2018-03-06T03:51:04.198Z,-3.85
2018-03-06T03:52:10.126Z,-3.90
2018-03-06T03:53:16.060Z,-3.93
2018-03-06T03:54:22.000Z,-3.95
2018-03-06T03:55:27.948Z,-4.00
2018-03-06T03:56:34.171Z,-3.95
2018-03-06T03:57:40.289Z,-3.97
2018-03-06T03:58:46.242Z,-4.00
2018-03-06T03:59:51.702Z,-4.04
2018-03-06T04:00:57.639Z,-4.03
2018-03-06T04:02:04.053Z,-4.03
2018-03-06T04:03:10.010Z,-4.01
2018-03-06T04:04:15.516Z,-4.05
2018-03-06T04:05:21.407Z,-4.05
2018-03-06T04:06:27.821Z,-4.05
2018-03-06T04:07:33.257Z,-4.01
2018-03-06T04:08:39.187Z,-4.01
2018-03-06T04:09:45.144Z,-3.90
2018-03-06T04:10:51.068Z,-3.92
2018-03-06T04:11:57.001Z,-3.90
2018-03-06T04:13:02.984Z,-3.88
2018-03-06T04:14:09.427Z,-3.90
2018-03-06T04:15:14.823Z,-3.93
2018-03-06T04:16:20.785Z,-3.97
2018-03-06T04:17:27.216Z,-4.01
2018-03-06T04:18:33.134Z,-4.07
2018-03-06T04:19:38.599Z,-4.03
2018-03-06T04:20:44.990Z,-3.91
2018-03-06T04:21:50.964Z,-3.74
2018-03-06T04:22:56.928Z,-3.75
2018-03-06T04:24:02.810Z,-3.86
2018-03-06T04:25:08.258Z,-3.85
2018-03-06T04:26:14.247Z,-3.83
2018-03-06T04:27:20.624Z,-3.87
2018-03-06T04:28:26.557Z,-3.89
2018-03-06T04:29:32.041Z,-3.86
2018-03-06T04:30:37.922Z,-3.87
2018-03-06T04:31:43.867Z,-3.91
2018-03-06T04:32:49.794Z,-3.96
2018-03-06T04:33:56.237Z,-3.97
2018-03-06T04:35:01.698Z,-4.05
2018-03-06T04:36:08.166Z,-4.08
2018-03-06T04:37:13.591Z,-4.07
2018-03-06T04:38:19.506Z,-4.12
2018-03-06T04:39:25.945Z,-4.09
2018-03-06T04:40:31.346Z,-4.06
2018-03-06T04:41:37.285Z,-4.08
2018-03-06T04:42:43.218Z,-4.06
2018-03-06T04:43:49.160Z,-4.03
2018-03-06T04:44:55.598Z,-4.09
2018-03-06T04:46:01.525Z,-4.10
2018-03-06T04:47:07.464Z,-4.15
2018-03-06T04:48:12.911Z,-4.23
2018-03-06T04:49:19.367Z,-4.31
2018-03-06T04:50:24.818Z,-4.28
2018-03-06T04:51:30.740Z,-4.19
2018-03-06T04:52:37.135Z,-4.19
2018-03-06T04:53:43.064Z,-4.26
2018-03-06T04:54:49.014Z,-4.24
2018-03-06T04:55:54.445Z,-4.22
2018-03-06T04:57:00.947Z,-4.19
2018-03-06T04:58:06.313Z,-4.00
2018-03-06T04:59:12.233Z,-4.05
2018-03-06T05:00:18.684Z,-4.00
2018-03-06T05:01:24.125Z,-4.08
2018-03-06T05:02:30.533Z,-4.17
2018-03-06T05:03:35.965Z,-4.19
2018-03-06T05:04:41.948Z,-4.15
2018-03-06T05:05:47.852Z,-4.12
2018-03-06T05:06:53.761Z,-4.10
2018-03-06T05:07:59.693Z,-4.04
2018-03-06T05:09:05.628Z,-3.98
2018-03-06T05:10:12.073Z,-4.01
2018-03-06T05:11:17.488Z,-4.04
2018-03-06T05:12:23.433Z,-4.06
2018-03-06T05:13:29.370Z,-4.17
2018-03-06T05:14:36.122Z,-4.25
2018-03-06T05:15:41.861Z,-4.38
2018-03-06T05:16:47.201Z,-4.48
2018-03-06T05:17:53.576Z,-4.38
2018-03-06T05:18:59.016Z,-4.22
2018-03-06T05:20:05.464Z,-4.13
2018-03-06T05:21:10.962Z,-4.11
2018-03-06T05:22:16.803Z,-4.21
2018-03-06T05:23:22.737Z,-4.22
2018-03-06T05:24:29.243Z,-4.14
2018-03-06T05:25:34.598Z,-4.16
2018-03-06T05:26:41.037Z,-4.29
2018-03-06T05:27:46.989Z,-4.31
2018-03-06T05:28:52.953Z,-4.27
2018-03-06T05:29:58.861Z,-4.26
2018-03-06T05:31:04.759Z,-4.19
2018-03-06T05:32:10.727Z,-4.04
2018-03-06T05:33:16.631Z,-3.98
2018-03-06T05:34:22.545Z,-4.00
2018-03-06T05:35:28.006Z,-4.06
2018-03-06T05:36:34.413Z,-4.07
2018-03-06T05:37:39.846Z,-4.13
2018-03-06T05:38:45.787Z,-4.11
2018-03-06T05:39:51.726Z,-4.01
2018-03-06T05:40:57.639Z,-3.97
2018-03-06T05:42:04.089Z,-4.07
2018-03-06T05:43:09.505Z,-4.13
2018-03-06T05:44:15.931Z,-4.24
2018-03-06T05:45:21.428Z,-4.33
2018-03-06T05:46:27.299Z,-4.33
2018-03-06T05:47:33.714Z,-4.29
2018-03-06T05:48:39.172Z,-4.34
2018-03-06T05:49:45.140Z,-4.38
2018-03-06T05:50:51.501Z,-4.40
2018-03-06T05:51:57.447Z,-4.37
2018-03-06T05:53:02.956Z,-4.27
2018-03-06T05:54:09.298Z,-4.28
2018-03-06T05:55:15.260Z,-4.36
2018-03-06T05:56:21.155Z,-4.39
2018-03-06T05:57:26.610Z,-4.36
2018-03-06T05:58:32.553Z,-4.33
2018-03-06T05:59:38.993Z,-4.22
2018-03-06T06:00:44.956Z,-4.20
2018-03-06T06:01:50.860Z,-4.27
2018-03-06T06:02:56.746Z,-4.40
2018-03-06T06:04:02.699Z,-4.50
2018-03-06T06:05:08.159Z,-4.44
2018-03-06T06:06:14.074Z,-4.39
2018-03-06T06:07:19.979Z,-4.26
2018-03-06T06:08:25.913Z,-4.22
2018-03-06T06:09:31.836Z,-4.23
2018-03-06T06:10:37.783Z,-4.33
2018-03-06T06:11:44.213Z,-4.37
2018-03-06T06:12:50.162Z,-4.40
2018-03-06T06:13:55.560Z,-4.37
2018-03-06T06:15:01.527Z,-4.33
2018-03-06T06:16:07.440Z,-4.26
2018-03-06T06:17:13.857Z,-4.23
2018-03-06T06:18:19.301Z,-4.23
2018-03-06T06:19:25.227Z,-4.18
2018-03-06T06:20:31.713Z,-4.12
2018-03-06T06:21:37.585Z,-4.08
2018-03-06T06:22:43.529Z,-4.06
2018-03-06T06:23:48.955Z,-3.99
2018-03-06T06:24:54.957Z,-3.95
2018-03-06T06:26:02.352Z,-3.86
2018-03-06T06:27:06.764Z,-3.72
2018-03-06T06:28:13.228Z,-3.69
2018-03-06T06:29:19.146Z,-3.75
2018-03-06T06:30:24.588Z,-3.82
2018-03-06T06:31:31.015Z,-3.88
2018-03-06T06:32:36.984Z,-3.90
2018-03-06T06:33:42.897Z,-3.90
2018-03-06T06:34:48.363Z,-3.87
2018-03-06T06:35:54.814Z,-3.86
2018-03-06T06:37:00.771Z,-3.85
2018-03-06T06:38:06.158Z,-3.83
2018-03-06T06:39:12.157Z,-3.81
2018-03-06T06:40:18.559Z,-3.81
2018-03-06T06:41:23.997Z,-3.76
2018-03-06T06:42:30.462Z,-3.67
2018-03-06T06:43:37.470Z,-3.60
2018-03-06T06:44:41.832Z,-3.51
2018-03-06T06:45:47.792Z,-3.42
2018-03-06T06:46:53.712Z,-3.35
2018-03-06T06:48:00.149Z,-3.20
2018-03-06T06:49:06.125Z,-3.13
2018-03-06T06:50:13.082Z,-3.16
2018-03-06T06:51:17.541Z,-3.21
2018-03-06T06:52:23.530Z,-3.24
2018-03-06T06:53:29.944Z,-3.24
2018-03-06T06:54:35.370Z,-3.25
2018-03-06T06:55:41.824Z,-3.24
2018-03-06T06:56:47.772Z,-3.26
2018-03-06T06:57:53.719Z,-3.25
2018-03-06T06:58:59.756Z,-3.23
2018-03-06T07:00:05.680Z,-3.21
2018-03-06T07:01:11.617Z,-3.22
2018-03-06T07:02:17.068Z,-3.25
2018-03-06T07:03:23.622Z,-3.21
2018-03-06T07:04:28.984Z,-3.07
2018-03-06T07:05:35.628Z,-2.81
2018-03-06T07:06:41.410Z,-2.62
2018-03-06T07:07:47.376Z,-2.55
2018-03-06T07:08:53.458Z,-2.61
2018-03-06T07:09:58.858Z,-2.69
2018-03-06T07:11:04.930Z,-2.74
2018-03-06T07:12:10.802Z,-2.75
2018-03-06T07:13:17.407Z,-2.76
2018-03-06T07:14:22.682Z,-2.75
2018-03-06T07:15:29.131Z,-2.74
2018-03-06T07:16:34.609Z,-2.68
2018-03-06T07:17:41.062Z,-2.62
2018-03-06T07:18:47.041Z,-2.58
2018-03-06T07:19:54.219Z,-2.53
2018-03-06T07:20:58.577Z,-2.36
2018-03-06T07:22:05.996Z,-2.19
2018-03-06T07:23:10.449Z,-2.12
2018-03-06T07:24:16.910Z,-2.11
2018-03-06T07:25:22.917Z,-2.12
2018-03-06T07:26:28.936Z,-2.11
2018-03-06T07:27:34.858Z,-2.07
2018-03-06T07:28:40.373Z,-2.04
2018-03-06T07:29:46.399Z,-2.03
2018-03-06T07:30:52.843Z,-1.98
2018-03-06T07:31:58.787Z,-1.90
2018-03-06T07:33:04.270Z,-1.79
2018-03-06T07:34:10.980Z,-1.75
2018-03-06T07:35:16.288Z,-1.66
2018-03-06T07:36:22.285Z,-1.59
2018-03-06T07:37:28.207Z,-1.56
2018-03-06T07:38:34.772Z,-1.52
2018-03-06T07:39:40.681Z,-1.46
2018-03-06T07:40:47.099Z,-1.45
2018-03-06T07:41:53.125Z,-1.41
2018-03-06T07:42:58.182Z,-1.36
2018-03-06T07:44:04.692Z,-1.29
2018-03-06T07:45:10.721Z,-1.22
2018-03-06T07:46:16.806Z,-1.18
2018-03-06T07:47:23.918Z,-1.11
2018-03-06T07:48:28.559Z,-1.07
2018-03-06T07:49:34.389Z,-1.03
2018-03-06T07:50:40.182Z,-0.96
2018-03-06T07:51:46.649Z,-0.89
2018-03-06T07:52:52.656Z,-0.81
2018-03-06T07:53:58.653Z,-0.76
2018-03-06T07:55:04.643Z,-0.71
2018-03-06T07:56:10.685Z,-0.68
2018-03-06T07:57:16.193Z,-0.63
2018-03-06T07:58:23.190Z,-0.57
2018-03-06T07:59:28.250Z,-0.52
2018-03-06T08:00:34.772Z,-0.47
2018-03-06T08:01:40.700Z,-0.38
2018-03-06T08:02:46.706Z,-0.33
2018-03-06T08:04:58.250Z,-0.26
2018-03-06T08:06:04.281Z,-0.22
2018-03-06T08:07:10.741Z,-0.19
2018-03-06T08:08:17.776Z,-0.16
2018-03-06T08:09:22.800Z,-0.14
2018-03-06T08:10:28.833Z,-0.09
2018-03-06T08:11:34.315Z,-0.09
2018-03-06T08:12:40.332Z,-0.05
2018-03-06T08:13:46.841Z,-0.01
2018-03-06T08:14:52.877Z,0.02
2018-03-06T08:15:58.429Z,0.07
2018-03-06T08:17:04.965Z,0.09
2018-03-06T08:18:10.919Z,0.10
2018-03-06T08:19:16.955Z,0.12
2018-03-06T08:20:23.007Z,0.20
2018-03-06T08:21:28.984Z,0.24
2018-03-06T08:22:34.532Z,0.27
2018-03-06T08:23:40.571Z,0.28
2018-03-06T08:24:46.578Z,0.31
2018-03-06T08:25:53.138Z,0.35
2018-03-06T08:26:58.622Z,0.41
2018-03-06T08:28:04.683Z,0.44
2018-03-06T08:29:11.209Z,0.48
2018-03-06T08:30:16.737Z,0.54
2018-03-06T08:31:22.775Z,0.55
2018-03-06T08:32:29.282Z,0.57
2018-03-06T08:33:35.351Z,0.65
2018-03-06T08:34:41.804Z,0.78
2018-03-06T08:35:46.929Z,0.85
2018-03-06T08:36:53.511Z,0.92
2018-03-06T08:37:59.498Z,0.97
2018-03-06T08:39:05.542Z,1.03
2018-03-06T08:40:11.067Z,1.06
2018-03-06T08:41:17.136Z,1.08
2018-03-06T08:42:23.158Z,1.12
2018-03-06T08:43:29.213Z,1.15
2018-03-06T08:44:35.754Z,1.17
2018-03-06T08:45:41.853Z,1.20
2018-03-06T08:46:47.934Z,1.21
2018-03-06T08:47:53.438Z,1.24
2018-03-06T08:48:59.995Z,1.25
2018-03-06T08:50:05.533Z,1.27
2018-03-06T08:51:12.133Z,1.30
2018-03-06T08:52:18.160Z,1.30
2018-03-06T08:53:23.699Z,1.33
2018-03-06T08:54:29.767Z,1.36
2018-03-06T08:55:35.844Z,1.39
2018-03-06T08:56:41.897Z,1.41
2018-03-06T08:57:48.453Z,1.43
2018-03-06T08:58:54.026Z,1.44
2018-03-06T09:00:00.076Z,1.45
2018-03-06T09:01:06.188Z,1.46
2018-03-06T09:02:12.696Z,1.50
2018-03-06T09:03:18.754Z,1.56
2018-03-06T09:04:24.840Z,1.58
2018-03-06T09:05:30.454Z,1.61
2018-03-06T09:06:36.464Z,1.65
2018-03-06T09:07:43.032Z,1.68
2018-03-06T09:08:48.613Z,1.71
2018-03-06T09:09:54.891Z,1.74
2018-03-06T09:11:00.770Z,1.78
2018-03-06T09:12:06.818Z,1.83
2018-03-06T09:13:13.383Z,1.88
2018-03-06T09:14:19.472Z,1.92
2018-03-06T09:15:25.051Z,1.96
2018-03-06T09:16:31.157Z,2.02
2018-03-06T09:17:37.731Z,2.07
2018-03-06T09:18:43.318Z,2.10
2018-03-06T09:19:49.416Z,2.18
2018-03-06T09:20:55.523Z,2.24
2018-03-06T09:22:01.611Z,2.29
2018-03-06T09:23:07.715Z,2.35
2018-03-06T09:24:13.818Z,2.41
2018-03-06T09:25:19.937Z,2.48
2018-03-06T09:26:26.067Z,2.57
2018-03-06T09:27:32.159Z,2.66
2018-03-06T09:28:38.780Z,2.77
2018-03-06T09:29:45.411Z,2.87
2018-03-06T09:30:50.618Z,2.98
2018-03-06T09:31:56.661Z,3.08
2018-03-06T09:33:02.776Z,3.18
2018-03-06T09:34:08.910Z,3.28
2018-03-06T09:35:15.055Z,3.35
2018-03-06T09:36:21.212Z,3.42
2018-03-06T09:37:27.346Z,3.52
2018-03-06T09:38:33.468Z,3.56
2018-03-06T09:39:39.618Z,3.63
2018-03-06T09:40:46.279Z,3.66
2018-03-06T09:41:51.921Z,3.69
2018-03-06T09:42:58.068Z,3.75
2018-03-06T09:44:04.219Z,3.82
2018-03-06T09:45:10.364Z,3.89
2018-03-06T09:46:16.552Z,3.97
2018-03-06T09:47:22.695Z,4.07
2018-03-06T09:48:28.850Z,4.14
2018-03-06T09:49:35.017Z,4.19
2018-03-06T09:50:41.205Z,4.23
2018-03-06T09:51:47.351Z,4.24
2018-03-06T09:52:53.522Z,4.20
2018-03-06T09:53:59.704Z,4.20
2018-03-06T09:55:05.932Z,4.25
2018-03-06T09:56:12.050Z,4.34
2018-03-06T09:57:18.213Z,4.45
2018-03-06T09:58:24.393Z,4.52
2018-03-06T09:59:31.568Z,4.57
2018-03-06T10:00:36.751Z,4.62
2018-03-06T10:01:42.967Z,4.71
2018-03-06T10:02:50.127Z,4.78
2018-03-06T10:03:55.308Z,4.87
2018-03-06T10:05:01.499Z,4.99
2018-03-06T10:06:07.713Z,5.04
2018-03-06T10:07:13.885Z,5.05
2018-03-06T10:08:20.087Z,5.09
2018-03-06T10:09:26.270Z,5.11
2018-03-06T10:10:32.470Z,5.10
2018-03-06T10:11:38.698Z,5.11
2018-03-06T10:12:44.889Z,5.19
2018-03-06T10:13:51.078Z,5.26
2018-03-06T10:14:57.302Z,5.35
2018-03-06T10:16:03.511Z,5.39
2018-03-06T10:17:09.719Z,5.41
2018-03-06T10:18:15.930Z,5.48
2018-03-06T10:19:22.143Z,5.55
2018-03-06T10:20:28.344Z,5.61
2018-03-06T10:21:34.592Z,5.69
2018-03-06T10:22:40.786Z,5.67
2018-03-06T10:23:47.000Z,5.68
2018-03-06T10:24:53.214Z,5.72
2018-03-06T10:25:59.468Z,5.76
2018-03-06T10:27:06.163Z,5.79
2018-03-06T10:28:11.895Z,5.82
2018-03-06T10:29:18.613Z,5.80
2018-03-06T10:30:24.358Z,5.80
2018-03-06T10:31:30.595Z,5.81
2018-03-06T10:32:36.814Z,5.88
2018-03-06T10:33:43.036Z,5.87
2018-03-06T10:34:49.268Z,5.90
2018-03-06T10:35:55.540Z,5.99
2018-03-06T10:37:01.757Z,6.05
2018-03-06T10:38:07.995Z,6.09
2018-03-06T10:39:14.787Z,6.17
2018-03-06T10:40:20.485Z,6.20
2018-03-06T10:41:27.228Z,6.23
2018-03-06T10:42:32.967Z,6.27
2018-03-06T10:43:39.205Z,6.37
2018-03-06T10:44:45.958Z,6.50
2018-03-06T10:45:52.203Z,6.53
2018-03-06T10:46:57.976Z,6.57
2018-03-06T10:48:04.219Z,6.67
2018-03-06T10:49:10.472Z,6.75
2018-03-06T10:50:17.224Z,6.83
2018-03-06T10:51:23.497Z,6.87
2018-03-06T10:52:29.246Z,6.92
2018-03-06T10:53:36.006Z,6.95
2018-03-06T10:54:41.781Z,6.98
2018-03-06T10:55:48.047Z,7.02
2018-03-06T10:56:54.353Z,6.98
2018-03-06T10:58:01.090Z,7.01
2018-03-06T10:59:06.863Z,6.97
2018-03-06T11:00:13.154Z,6.97
2018-03-06T11:01:19.458Z,7.03
2018-03-06T11:02:25.729Z,7.07
2018-03-06T11:03:32.006Z,7.16
2018-03-06T11:04:38.278Z,7.24
2018-03-06T11:05:44.566Z,7.28
2018-03-06T11:06:50.883Z,7.30
2018-03-06T11:07:57.163Z,7.33
2018-03-06T11:09:03.460Z,7.32
2018-03-06T11:10:09.771Z,7.41
2018-03-06T11:11:16.059Z,7.45
2018-03-06T11:12:22.389Z,7.53
2018-03-06T11:13:28.657Z,7.61
2018-03-06T11:14:34.974Z,7.67
2018-03-06T11:15:41.262Z,7.72
2018-03-06T11:16:47.645Z,7.82
2018-03-06T11:17:53.885Z,7.84
2018-03-06T11:19:00.693Z,7.83
2018-03-06T11:20:06.510Z,7.88
2018-03-06T11:21:12.830Z,7.90
2018-03-06T11:22:19.162Z,7.93
2018-03-06T11:23:25.455Z,7.93
2018-03-06T11:24:31.782Z,7.94
2018-03-06T11:25:38.089Z,7.89
2018-03-06T11:26:44.442Z,7.95
2018-03-06T11:27:50.757Z,8.05
2018-03-06T11:28:57.079Z,8.06
2018-03-06T11:30:03.394Z,8.14
2018-03-06T11:31:09.726Z,8.26
2018-03-06T11:32:16.084Z,8.28
2018-03-06T11:33:22.399Z,8.22
2018-03-06T11:34:28.731Z,8.28
2018-03-06T11:35:35.071Z,8.22
2018-03-06T11:36:41.429Z,8.34
2018-03-06T11:37:47.759Z,8.45
2018-03-06T11:38:54.108Z,8.48
2018-03-06T11:40:00.914Z,8.52
2018-03-06T11:41:06.802Z,8.55
2018-03-06T11:42:13.190Z,8.68
2018-03-06T11:43:19.542Z,8.69
2018-03-06T11:44:25.909Z,8.75
2018-03-06T11:45:32.315Z,8.78
2018-03-06T11:46:38.712Z,8.84
2018-03-06T11:47:45.061Z,8.97
2018-03-06T11:48:51.453Z,9.04
2018-03-06T11:49:57.946Z,9.09
2018-03-06T11:51:04.260Z,9.13
2018-03-06T11:52:10.697Z,9.14
2018-03-06T11:53:17.117Z,9.19
2018-03-06T11:54:23.988Z,9.23
2018-03-06T11:55:29.934Z,9.31
2018-03-06T11:56:36.358Z,9.33
2018-03-06T11:57:42.773Z,9.32
2018-03-06T11:58:49.204Z,9.38
2018-03-06T11:59:55.641Z,9.44
2018-03-06T12:01:02.094Z,9.53
2018-03-06T12:02:08.550Z,9.49
2018-03-06T12:03:15.069Z,9.48
2018-03-06T12:04:21.426Z,9.45
2018-03-06T12:05:27.891Z,9.50
2018-03-06T12:06:34.373Z,9.57
2018-03-06T12:07:40.831Z,9.66
2018-03-06T12:08:47.289Z,9.65
2018-03-06T12:09:54.261Z,9.65
2018-03-06T12:11:00.245Z,9.63
2018-03-06T12:12:07.318Z,9.60
2018-03-06T12:13:13.704Z,9.62
2018-03-06T12:14:19.710Z,9.69
2018-03-06T12:15:26.383Z,9.79
2018-03-06T12:17:39.181Z,9.81
2018-03-06T12:18:46.653Z,9.90
2018-03-06T12:19:52.187Z,9.87
2018-03-06T12:20:58.679Z,9.86
2018-03-06T12:22:05.283Z,9.93
2018-03-06T12:23:11.678Z,9.98
2018-03-06T12:24:18.223Z,9.93
2018-03-06T12:25:24.718Z,10.05
2018-03-06T12:26:31.218Z,10.19
2018-03-06T12:27:37.766Z,10.18
2018-03-06T12:28:44.749Z,10.23
2018-03-06T12:29:50.778Z,10.21
2018-03-06T12:30:57.793Z,10.27
2018-03-06T12:32:04.353Z,10.11
2018-03-06T12:33:10.341Z,10.11
2018-03-06T12:34:17.958Z,10.22
2018-03-06T12:35:23.417Z,10.32
2018-03-06T12:36:30.900Z,10.38
2018-03-06T12:37:36.938Z,10.44
2018-03-06T12:38:42.947Z,10.45
2018-03-06T12:39:49.460Z,10.48
2018-03-06T12:40:55.995Z,10.57
2018-03-06T12:42:02.553Z,10.52
2018-03-06T12:43:09.026Z,10.47
2018-03-06T12:44:15.557Z,10.51
2018-03-06T12:45:22.087Z,10.56
2018-03-06T12:46:29.095Z,10.58
2018-03-06T12:47:35.147Z,10.58
2018-03-06T12:48:41.651Z,10.58
2018-03-06T12:49:48.195Z,10.66
2018-03-06T12:50:54.727Z,10.72
2018-03-06T12:52:01.283Z,10.63
2018-03-06T12:53:07.824Z,10.57
2018-03-06T12:54:14.328Z,10.54
2018-03-06T12:55:20.866Z,10.56
2018-03-06T12:56:27.466Z,10.54
2018-03-06T12:57:34.051Z,10.44
2018-03-06T12:58:41.988Z,10.20
2018-03-06T12:59:47.542Z,10.19
2018-03-06T13:00:53.610Z,10.24
2018-03-06T13:02:00.173Z,10.17
2018-03-06T13:03:06.738Z,10.18
2018-03-06T13:04:13.315Z,10.19
2018-03-06T13:05:19.827Z,10.14
2018-03-06T13:06:26.392Z,10.12
2018-03-06T13:07:32.987Z,10.11
2018-03-06T13:08:39.492Z,10.24
2018-03-06T13:09:46.062Z,10.37
2018-03-06T13:10:52.625Z,10.43
2018-03-06T13:11:59.218Z,10.35
2018-03-06T13:13:06.257Z,10.29
2018-03-06T13:14:12.340Z,10.29
2018-03-06T13:15:18.913Z,10.29
2018-03-06T13:16:25.497Z,10.28
2018-03-06T13:17:32.206Z,10.28
2018-03-06T13:18:38.667Z,10.28
2018-03-06T13:19:45.251Z,10.28
2018-03-06T13:20:52.323Z,10.21
2018-03-06T13:21:58.443Z,10.20
2018-03-06T13:23:04.996Z,10.14
2018-03-06T13:24:11.592Z,10.19
2018-03-06T13:25:18.204Z,10.29
2018-03-06T13:26:24.746Z,10.35
2018-03-06T13:27:31.366Z,10.39
2018-03-06T13:28:37.922Z,10.43
2018-03-06T13:29:44.522Z,10.45
2018-03-06T13:30:51.126Z,10.48
2018-03-06T13:31:57.724Z,10.51
2018-03-06T13:33:04.295Z,10.58
2018-03-06T13:34:10.896Z,10.63
2018-03-06T13:35:17.488Z,10.61
2018-03-06T13:36:24.078Z,10.64
2018-03-06T13:37:30.725Z,10.68
2018-03-06T13:38:37.258Z,10.67
2018-03-06T13:39:43.861Z,10.72
2018-03-06T13:40:50.463Z,10.86
2018-03-06T13:41:57.065Z,10.92
2018-03-06T13:43:03.657Z,10.97
2018-03-06T13:44:10.228Z,10.91
2018-03-06T13:45:16.814Z,10.84
2018-03-06T13:46:23.416Z,10.85
2018-03-06T13:47:30.012Z,10.87
2018-03-06T13:48:36.572Z,10.85
2018-03-06T13:49:43.168Z,10.71
2018-03-06T13:50:49.745Z,10.66
2018-03-06T13:51:56.322Z,10.73
2018-03-06T13:53:02.919Z,10.82
2018-03-06T13:54:09.474Z,10.90
2018-03-06T13:55:16.046Z,10.75
2018-03-06T13:56:22.611Z,10.82
2018-03-06T13:57:29.201Z,10.89
2018-03-06T13:58:35.742Z,10.97
2018-03-06T13:59:42.834Z,11.04
2018-03-06T14:00:49.381Z,11.03
2018-03-06T14:01:55.455Z,11.08
2018-03-06T14:03:02.024Z,11.16
2018-03-06T14:04:08.565Z,11.12
2018-03-06T14:05:15.173Z,11.16
2018-03-06T14:06:22.174Z,11.24
2018-03-06T14:07:28.258Z,11.25
2018-03-06T14:08:34.793Z,11.25
2018-03-06T14:09:41.345Z,11.19
2018-03-06T14:10:47.894Z,11.18
2018-03-06T14:11:54.449Z,11.22
2018-03-06T14:13:01.066Z,11.16
2018-03-06T14:14:07.545Z,11.22
2018-03-06T14:15:14.070Z,11.23
2018-03-06T14:16:20.604Z,11.24
2018-03-06T14:17:28.143Z,11.23
2018-03-06T14:18:33.669Z,11.20
2018-03-06T14:19:40.196Z,11.19
2018-03-06T14:20:46.692Z,11.11